createdAt,value
2018-05-02T00:00:37.837Z,12.9
2018-05-02T00:01:28.170Z,12.9
2018-05-02T00:02:17.957Z,12.9
2018-05-02T00:03:08.027Z,12.9
2018-05-02T00:03:58.364Z,12.9
2018-05-02T00:04:48.419Z,12.9
2018-05-02T00:05:38.515Z,12.9
2018-05-02T00:06:28.571Z,12.9
2018-05-02T00:07:18.371Z,12.9
2018-05-02T00:08:08.207Z,12.8
2018-05-02T00:08:58.779Z,12.8
2018-05-02T00:09:48.530Z,12.8
2018-05-02T00:10:38.961Z,12.8
2018-05-02T00:11:28.690Z,12.8
2018-05-02T00:12:18.460Z,12.8
2018-05-02T00:13:09.066Z,12.8
2018-05-02T00:13:59.150Z,12.8
2018-05-02T00:14:49.323Z,12.7
2018-05-02T00:15:39.036Z,12.7
2018-05-02T00:16:29.040Z,12.7
2018-05-02T00:17:18.830Z,12.6
2018-05-02T00:18:09.482Z,12.6
2018-05-02T00:18:59.268Z,12.6
2018-05-02T00:19:49.315Z,12.6
2018-05-02T00:20:39.671Z,12.5
2018-05-02T00:21:29.171Z,12.4
2018-05-02T00:22:19.807Z,12.4
2018-05-02T00:23:09.821Z,12.4
2018-05-02T00:23:59.739Z,12.3
2018-05-02T00:24:49.712Z,12.3
2018-05-02T00:25:40.029Z,12.3
2018-05-02T00:26:30.093Z,12.3
2018-05-02T00:27:19.597Z,12.3
2018-05-02T00:28:10.029Z,12.2
2018-05-02T00:28:59.750Z,12.2
2018-05-02T00:29:49.497Z,12.1
2018-05-02T00:30:40.448Z,12.1
2018-05-02T00:31:29.937Z,12.1
2018-05-02T00:32:20.576Z,12.1
2018-05-02T00:33:09.794Z,12
2018-05-02T00:34:01.005Z,12
2018-05-02T00:34:50.190Z,12
2018-05-02T00:35:40.802Z,11.9
2018-05-02T00:36:30.619Z,11.9
2018-05-02T00:37:20.421Z,11.9
2018-05-02T00:38:10.757Z,11.9
2018-05-02T00:39:00.799Z,11.9
2018-05-02T00:39:51.145Z,11.9
2018-05-02T00:40:40.942Z,11.9
2018-05-02T00:41:31.309Z,11.8
2018-05-02T00:42:21.345Z,11.8
2018-05-02T00:43:11.403Z,11.8
2018-05-02T00:44:01.206Z,11.8
2018-05-02T00:44:51.531Z,11.7
2018-05-02T00:45:41.584Z,11.7
2018-05-02T00:46:31.643Z,11.6
2018-05-02T00:47:21.450Z,11.6
2018-05-02T00:48:11.519Z,11.6
2018-05-02T00:49:01.862Z,11.5
2018-05-02T00:49:51.904Z,11.5
2018-05-02T00:50:41.990Z,11.4
2018-05-02T00:51:31.757Z,11.4
2018-05-02T00:52:22.118Z,11.4
2018-05-02T00:53:12.190Z,11.4
2018-05-02T00:54:01.677Z,11.3
2018-05-02T00:54:52.294Z,11.3
2018-05-02T00:55:42.118Z,11.3
2018-05-02T00:56:32.135Z,11.3
2018-05-02T00:57:21.929Z,11.2
2018-05-02T00:58:12.274Z,11.2
2018-05-02T00:59:02.344Z,11.2
2018-05-02T00:59:52.137Z,11.1
2018-05-02T01:00:42.485Z,11.1
2018-05-02T01:01:32.561Z,11.1
2018-05-02T01:02:22.915Z,11.1
2018-05-02T01:03:12.940Z,11
2018-05-02T01:04:02.763Z,10.9
2018-05-02T01:04:52.793Z,10.9
2018-05-02T01:05:42.888Z,10.9
2018-05-02T01:06:32.942Z,10.9
2018-05-02T01:07:23.272Z,10.8
2018-05-02T01:08:12.770Z,10.8
2018-05-02T01:09:02.279Z,10.8
2018-05-02T01:09:53.458Z,10.8
2018-05-02T01:10:43.258Z,10.8
2018-05-02T01:11:33.611Z,10.8
2018-05-02T01:12:23.638Z,10.8
2018-05-02T01:13:13.717Z,10.7
2018-05-02T01:14:03.541Z,10.6
2018-05-02T01:14:53.860Z,10.6
2018-05-02T01:15:43.941Z,10.6
2018-05-02T01:16:33.995Z,10.5
2018-05-02T01:17:23.483Z,10.5
2018-05-02T01:18:13.827Z,10.5
2018-05-02T01:19:04.168Z,10.4
2018-05-02T01:19:54.241Z,10.4
2018-05-02T01:20:44.314Z,10.4
2018-05-02T01:21:34.365Z,10.4
2018-05-02T01:22:24.429Z,10.4
2018-05-02T01:23:14.493Z,10.3
2018-05-02T01:24:04.550Z,10.3
2018-05-02T01:24:54.373Z,10.3
2018-05-02T01:25:44.712Z,10.3
2018-05-02T01:26:34.475Z,10.3
2018-05-02T01:27:24.533Z,10.2
2018-05-02T01:28:14.899Z,10.2
2018-05-02T01:29:04.692Z,10.3
2018-05-02T01:29:54.743Z,10.2
2018-05-02T01:30:44.792Z,10.2
2018-05-02T01:31:35.148Z,10.2
2018-05-02T01:32:25.215Z,10.1
2018-05-02T01:33:14.999Z,10.1
2018-05-02T01:34:04.803Z,10.1
2018-05-02T01:34:55.401Z,10.1
2018-05-02T01:35:45.469Z,10.1
2018-05-02T01:36:35.266Z,10.1
2018-05-02T01:37:25.336Z,10.1
2018-05-02T01:38:15.383Z,10.1
2018-05-02T01:39:05.460Z,10.1
2018-05-02T01:39:55.231Z,10.1
2018-05-02T01:40:45.850Z,10
2018-05-02T01:41:35.909Z,10
2018-05-02T01:42:25.691Z,10
2018-05-02T01:43:16.041Z,9.9
2018-05-02T01:44:05.838Z,9.9
2018-05-02T01:44:55.912Z,9.9
2018-05-02T01:45:45.993Z,9.9
2018-05-02T01:46:36.383Z,9.9
2018-05-02T01:47:25.818Z,9.9
2018-05-02T01:48:15.880Z,9.9
2018-05-02T01:49:06.524Z,9.8
2018-05-02T01:49:56.595Z,9.9
2018-05-02T01:50:46.068Z,9.8
2018-05-02T01:51:36.724Z,9.8
2018-05-02T01:52:26.491Z,9.8
2018-05-02T01:53:16.834Z,9.8
2018-05-02T01:54:06.610Z,9.8
2018-05-02T01:54:56.388Z,9.7
2018-05-02T01:55:46.745Z,9.7
2018-05-02T01:56:37.093Z,9.7
2018-05-02T01:57:26.877Z,9.7
2018-05-02T01:58:17.250Z,9.7
2018-05-02T01:59:07.000Z,9.6
2018-05-02T01:59:57.073Z,9.6
2018-05-02T02:00:47.412Z,9.6
2018-05-02T02:01:37.473Z,9.6
2018-05-02T02:02:27.533Z,9.6
2018-05-02T02:03:17.700Z,9.6
2018-05-02T02:04:07.664Z,9.6
2018-05-02T02:04:57.757Z,9.6
2018-05-02T02:05:47.518Z,9.6
2018-05-02T02:06:37.874Z,9.6
2018-05-02T02:07:27.642Z,9.6
2018-05-02T02:08:17.722Z,9.5
2018-05-02T02:09:08.072Z,9.6
2018-05-02T02:09:58.125Z,9.6
2018-05-02T02:10:48.204Z,9.5
2018-05-02T02:11:38.009Z,9.5
2018-05-02T02:12:27.764Z,9.5
2018-05-02T02:13:17.841Z,9.5
2018-05-02T02:14:08.179Z,9.5
2018-05-02T02:14:58.243Z,9.4
2018-05-02T02:15:48.592Z,9.5
2018-05-02T02:16:38.389Z,9.4
2018-05-02T02:17:28.734Z,9.4
2018-05-02T02:18:18.607Z,9.4
2018-05-02T02:19:08.267Z,9.4
2018-05-02T02:19:58.930Z,9.4
2018-05-02T02:20:48.691Z,9.3
2018-05-02T02:21:39.027Z,9.4
2018-05-02T02:22:29.102Z,9.3
2018-05-02T02:23:18.891Z,9.3
2018-05-02T02:24:09.010Z,9.3
2018-05-02T02:24:59.362Z,9.3
2018-05-02T02:25:49.088Z,9.3
2018-05-02T02:26:39.432Z,9.3
2018-05-02T02:27:29.496Z,9.2
2018-05-02T02:28:19.264Z,9.2
2018-05-02T02:29:09.622Z,9.2
2018-05-02T02:29:59.661Z,9.1
2018-05-02T02:30:49.483Z,9.1
2018-05-02T02:31:38.984Z,9.1
2018-05-02T02:32:29.886Z,9.1
2018-05-02T02:33:19.671Z,9.1
2018-05-02T02:34:09.703Z,9.1
2018-05-02T02:34:59.787Z,9.1
2018-05-02T02:35:50.143Z,9
2018-05-02T02:36:39.916Z,9
2018-05-02T02:37:29.994Z,9
2018-05-02T02:38:20.057Z,9
2018-05-02T02:39:10.145Z,9
2018-05-02T02:40:00.476Z,8.9
2018-05-02T02:40:50.245Z,9
2018-05-02T02:41:40.597Z,8.9
2018-05-02T02:42:30.370Z,8.9
2018-05-02T02:43:20.481Z,8.9
2018-05-02T02:44:10.820Z,8.9
2018-05-02T02:45:00.576Z,8.9
2018-05-02T02:45:50.931Z,8.9
2018-05-02T02:46:40.986Z,8.8
2018-05-02T02:47:31.047Z,8.8
2018-05-02T02:48:21.125Z,8.8
2018-05-02T02:49:10.916Z,8.8
2018-05-02T02:50:00.978Z,8.8
2018-05-02T02:50:51.299Z,8.8
2018-05-02T02:51:41.397Z,8.8
2018-05-02T02:52:31.423Z,8.8
2018-05-02T02:53:21.519Z,8.8
2018-05-02T02:54:11.297Z,8.7
2018-05-02T02:55:01.639Z,8.7
2018-05-02T02:55:51.419Z,8.7
2018-05-02T02:56:41.764Z,8.6
2018-05-02T02:57:31.563Z,8.6
2018-05-02T02:58:21.873Z,8.6
2018-05-02T02:59:11.952Z,8.6
2018-05-02T03:00:01.444Z,8.6
2018-05-02T03:00:52.169Z,8.6
2018-05-02T03:01:41.867Z,8.6
2018-05-02T03:02:31.660Z,8.6
2018-05-02T03:03:21.978Z,8.6
2018-05-02T03:04:12.064Z,8.6
2018-05-02T03:05:02.156Z,8.6
2018-05-02T03:05:52.201Z,8.6
2018-05-02T03:06:41.970Z,8.6
2018-05-02T03:07:32.011Z,8.5
2018-05-02T03:08:22.383Z,8.5
2018-05-02T03:09:12.444Z,8.5
2018-05-02T03:10:02.806Z,8.4
2018-05-02T03:10:52.565Z,8.4
2018-05-02T03:11:42.941Z,8.4
2018-05-02T03:12:32.703Z,8.4
2018-05-02T03:13:22.757Z,8.4
2018-05-02T03:14:12.858Z,8.4
2018-05-02T03:15:02.901Z,8.4
2018-05-02T03:15:52.942Z,8.4
2018-05-02T03:16:43.371Z,8.4
2018-05-02T03:17:33.082Z,8.3
2018-05-02T03:18:22.866Z,8.3
2018-05-02T03:19:13.514Z,8.3
2018-05-02T03:20:03.594Z,8.3
2018-05-02T03:20:53.338Z,8.3
2018-05-02T03:21:43.695Z,8.3
2018-05-02T03:22:33.762Z,8.3
2018-05-02T03:23:23.851Z,8.3
2018-05-02T03:24:13.899Z,8.3
2018-05-02T03:25:03.095Z,8.3
2018-05-02T03:25:54.108Z,8.3
2018-05-02T03:26:44.125Z,8.3
2018-05-02T03:27:33.856Z,8.3
2018-05-02T03:28:24.196Z,8.3
2018-05-02T03:29:13.997Z,8.3
2018-05-02T03:30:04.483Z,8.3
2018-05-02T03:30:54.532Z,8.2
2018-05-02T03:31:44.202Z,8.2
2018-05-02T03:32:34.530Z,8.2
2018-05-02T03:33:24.325Z,8.2
2018-05-02T03:34:14.378Z,8.2
2018-05-02T03:35:04.446Z,8.2
2018-05-02T03:35:54.790Z,8.2
2018-05-02T03:36:44.572Z,8.2
2018-05-02T03:37:34.929Z,8.2
2018-05-02T13:28:39.590Z,64.4
2018-05-02T13:29:29.635Z,64
2018-05-02T13:30:20.001Z,62.9
2018-05-02T13:31:09.773Z,61.6
2018-05-02T13:32:00.105Z,60.8
2018-05-02T13:32:49.610Z,60.9
2018-05-02T13:33:39.974Z,61.4
2018-05-02T13:34:30.300Z,61.9
2018-05-02T13:35:20.375Z,62.2
2018-05-02T13:36:09.893Z,62.3
2018-05-02T13:37:00.235Z,62.3
2018-05-02T13:37:50.574Z,61.9
2018-05-02T13:38:40.359Z,61.6
2018-05-02T13:39:30.924Z,61.3
2018-05-02T13:40:20.501Z,60.9
2018-05-02T13:41:10.557Z,60.9
2018-05-02T13:42:00.905Z,60.8
2018-05-02T13:42:50.974Z,60.7
2018-05-02T13:43:41.056Z,60.4
2018-05-02T13:44:30.559Z,59.9
2018-05-02T13:45:20.911Z,59.8
2018-05-02T13:46:11.227Z,59.5
2018-05-02T13:47:01.310Z,58.8
2018-05-02T13:47:50.824Z,58.1
2018-05-02T13:48:41.523Z,57.6
2018-05-02T13:49:31.219Z,57.1
2018-05-02T13:50:21.561Z,56.6
2018-05-02T13:51:11.649Z,56.1
2018-05-02T13:52:01.731Z,55.5
2018-05-02T13:52:51.219Z,54.9
2018-05-02T13:53:41.831Z,54.6
2018-05-02T13:54:30.884Z,54.3
2018-05-02T13:55:21.999Z,54.4
2018-05-02T13:56:12.032Z,54.6
2018-05-02T13:57:01.637Z,54.7
2018-05-02T13:57:52.178Z,54.5
2018-05-02T13:58:42.042Z,53.9
2018-05-02T13:59:32.288Z,53.3
2018-05-02T14:00:22.378Z,52.6
2018-05-02T14:02:02.247Z,51.4
2018-05-02T14:02:52.293Z,51.1
2018-05-02T14:03:42.636Z,50.8
2018-05-02T14:04:32.762Z,50.6
2018-05-02T14:05:22.816Z,50.5
2018-05-02T14:06:12.543Z,50.3
2018-05-02T14:07:02.631Z,50.1
2018-05-02T14:07:52.718Z,49.7
2018-05-02T14:08:42.832Z,49.3
2018-05-02T14:09:32.628Z,48.9
2018-05-02T14:10:23.165Z,48.6
2018-05-02T14:11:12.657Z,48.4
2018-05-02T14:12:03.027Z,48.1
2018-05-02T14:12:53.345Z,47.9
2018-05-02T14:13:43.399Z,47.6
2018-05-02T14:14:33.470Z,47.4
2018-05-02T14:15:23.290Z,47.2
2018-05-02T14:16:13.345Z,46.9
2018-05-02T14:17:03.690Z,46.8
2018-05-02T14:17:53.453Z,46.6
2018-05-02T14:18:43.534Z,46.4
2018-05-02T14:19:33.604Z,46.3
2018-05-02T14:20:23.385Z,46.1
2018-05-02T14:21:14.010Z,45.9
2018-05-02T14:22:04.068Z,45.7
2018-05-02T14:22:53.857Z,45.6
2018-05-02T14:23:43.921Z,45.4
2018-05-02T14:24:34.274Z,45.3
2018-05-02T14:25:24.341Z,45.1
2018-05-02T14:26:14.119Z,45
2018-05-02T14:27:03.902Z,44.8
2018-05-02T14:27:54.269Z,44.6
2018-05-02T14:28:44.312Z,44.5
2018-05-02T14:29:34.699Z,44.3
2018-05-02T14:30:24.732Z,44.3
2018-05-02T14:31:14.278Z,44.1
2018-05-02T14:32:04.936Z,43.9
2018-05-02T14:32:55.192Z,43.9
2018-05-02T14:33:44.974Z,43.7
2018-05-02T14:34:35.044Z,43.6
2018-05-02T14:35:25.147Z,43.4
2018-05-02T14:36:15.183Z,43.3
2018-05-02T14:37:05.269Z,43.1
2018-05-02T14:37:55.322Z,42.9
2018-05-02T14:38:45.377Z,42.8
2018-05-02T14:39:35.459Z,42.6
2018-05-02T14:40:25.525Z,42.6
2018-05-02T14:41:15.289Z,42.4
2018-05-02T14:42:05.664Z,42.3
2018-05-02T14:42:55.753Z,42.1
2018-05-02T14:43:45.505Z,42.1
2018-05-02T14:44:35.566Z,42
2018-05-02T14:45:26.461Z,41.9
2018-05-02T14:46:15.978Z,41.9
2018-05-02T14:47:06.055Z,41.8
2018-05-02T14:47:56.104Z,41.6
2018-05-02T14:48:46.165Z,41.5
2018-05-02T14:49:36.238Z,41.4
2018-05-02T14:50:26.295Z,41.3
2018-05-02T14:51:16.390Z,41.2
2018-05-02T14:52:06.159Z,41.1
2018-05-02T14:52:56.310Z,40.9
2018-05-02T14:53:46.595Z,40.8
2018-05-02T14:54:36.194Z,40.6
2018-05-02T14:55:26.672Z,40.6
2018-05-02T14:56:16.738Z,40.4
2018-05-02T14:57:06.839Z,40.3
2018-05-02T14:57:56.873Z,40.3
2018-05-02T14:58:46.942Z,40.2
2018-05-02T14:59:37.016Z,40.1
2018-05-02T15:00:27.126Z,40.1
2018-05-02T15:01:16.931Z,39.9
2018-05-02T15:02:07.863Z,39.8
2018-05-02T15:02:57.080Z,39.7
2018-05-02T15:03:47.359Z,39.6
2018-05-02T15:04:37.129Z,39.6
2018-05-02T15:05:27.196Z,39.4
2018-05-02T15:06:16.977Z,39.3
2018-05-02T15:07:07.611Z,39.3
2018-05-02T15:07:57.374Z,39.1
2018-05-02T15:08:47.753Z,39.1
2018-05-02T15:09:37.820Z,38.9
2018-05-02T15:10:27.848Z,38.8
2018-05-02T15:11:17.661Z,38.8
2018-05-02T15:12:07.737Z,38.6
2018-05-02T15:12:58.055Z,38.5
2018-05-02T15:13:47.838Z,38.4
2018-05-02T15:14:38.189Z,38.4
2018-05-02T15:15:28.031Z,38.3
2018-05-02T15:16:17.493Z,38.2
2018-05-02T15:17:08.397Z,38.1
2018-05-02T15:17:58.795Z,38
2018-05-02T15:18:48.520Z,37.9
2018-05-02T15:19:38.583Z,37.9
2018-05-02T15:20:28.394Z,37.8
2018-05-02T15:21:18.149Z,37.7
2018-05-02T15:22:08.787Z,37.6
2018-05-02T15:22:58.844Z,37.6
2018-05-02T15:23:48.397Z,37.5
2018-05-02T15:24:38.561Z,37.4
2018-05-02T15:25:28.752Z,37.4
2018-05-02T15:26:19.117Z,37.3
2018-05-02T15:27:09.170Z,37.3
2018-05-02T15:27:58.957Z,37.2
2018-05-02T15:28:49.289Z,37.1
2018-05-02T15:29:39.068Z,37.1
2018-05-02T15:30:29.144Z,37
2018-05-02T15:31:19.494Z,36.9
2018-05-02T15:32:09.563Z,36.9
2018-05-02T15:32:59.358Z,36.9
2018-05-02T15:33:49.685Z,36.8
2018-05-02T15:34:39.467Z,36.8
2018-05-02T15:35:29.824Z,36.8
2018-05-02T15:36:19.594Z,36.7
2018-05-02T15:37:09.952Z,36.7
2018-05-02T15:38:00.018Z,36.6
2018-05-02T15:38:50.061Z,36.6
2018-05-02T15:39:39.872Z,36.6
2018-05-02T15:40:29.935Z,36.6
2018-05-02T15:41:20.268Z,36.6
2018-05-02T15:42:10.333Z,36.6
2018-05-02T15:43:00.409Z,36.6
2018-05-02T15:43:50.488Z,36.5
2018-05-02T15:44:40.520Z,36.4
2018-05-02T15:45:30.321Z,36.4
2018-05-02T15:46:20.689Z,36.3
2018-05-02T15:47:10.469Z,36.3
2018-05-02T15:48:00.913Z,36.2
2018-05-02T15:48:50.590Z,36.1
2018-05-02T15:49:40.924Z,36
2018-05-02T15:50:30.990Z,35.9
2018-05-02T15:51:21.061Z,35.9
2018-05-02T15:52:10.575Z,35.8
2018-05-02T15:53:01.175Z,35.8
2018-05-02T15:53:51.253Z,35.7
2018-05-02T15:54:41.324Z,35.7
2018-05-02T15:55:31.414Z,35.6
2018-05-02T15:56:20.898Z,35.5
2018-05-02T15:57:11.507Z,35.4
2018-05-02T15:58:02.143Z,35.4
2018-05-02T15:58:51.711Z,35.3
2018-05-02T15:59:41.721Z,35.2
2018-05-02T16:00:31.768Z,35.2
2018-05-02T16:01:21.852Z,35.1
2018-05-02T16:02:11.627Z,35.1
2018-05-02T16:03:01.991Z,35
2018-05-02T16:03:52.042Z,35
2018-05-02T16:04:41.831Z,34.9
2018-05-02T16:05:31.919Z,34.9
2018-05-02T16:06:22.244Z,34.9
2018-05-02T16:07:12.394Z,34.9
2018-05-02T16:08:02.375Z,34.9
2018-05-02T16:08:52.467Z,34.8
2018-05-02T16:09:42.532Z,34.8
2018-05-02T16:10:32.300Z,34.8
2018-05-02T16:11:22.657Z,34.7
2018-05-02T16:12:12.719Z,34.6
2018-05-02T16:13:02.797Z,34.6
2018-05-02T16:13:52.560Z,34.5
2018-05-02T16:14:43.014Z,34.4
2018-05-02T16:15:32.389Z,34.4
2018-05-02T16:16:23.388Z,34.4
2018-05-02T16:17:13.107Z,34.3
2018-05-02T16:18:02.899Z,34.3
2018-05-02T16:18:52.673Z,34.3
2018-05-02T16:19:43.288Z,34.2
2018-05-02T16:20:33.097Z,34.1
2018-05-02T16:21:23.428Z,34.1
2018-05-02T16:22:14.050Z,34.1
2018-05-02T16:23:03.547Z,34.1
2018-05-02T16:23:53.348Z,34
2018-05-02T16:24:43.691Z,33.9
2018-05-02T16:25:33.497Z,33.9
2018-05-02T16:26:23.569Z,33.9
2018-05-02T16:27:13.603Z,33.8
2018-05-02T16:28:03.940Z,33.8
2018-05-02T16:28:53.517Z,33.8
2018-05-02T16:29:43.786Z,33.8
2018-05-02T16:30:34.050Z,33.7
2018-05-02T16:31:24.205Z,33.7
2018-05-02T16:32:13.984Z,33.6
2018-05-02T16:33:04.131Z,33.6
2018-05-02T16:33:54.403Z,33.6
2018-05-02T16:34:44.479Z,33.5
2018-05-02T16:35:34.264Z,33.4
2018-05-02T16:36:24.635Z,33.4
2018-05-02T16:37:14.384Z,33.4
2018-05-02T16:38:04.468Z,33.3
2018-05-02T16:38:54.783Z,33.3
2018-05-02T16:39:44.293Z,33.3
2018-05-02T16:40:34.945Z,33.2
2018-05-02T16:41:24.998Z,33.2
2018-05-02T16:42:15.041Z,33.1
2018-05-02T16:43:04.845Z,33.2
2018-05-02T16:43:54.918Z,33.2
2018-05-02T16:44:45.263Z,33.1
2018-05-02T16:45:35.035Z,33.1
2018-05-02T16:46:25.390Z,33.1
2018-05-02T16:47:15.159Z,33.1
2018-05-02T16:48:05.512Z,33
2018-05-02T16:48:55.300Z,33
2018-05-02T16:49:45.079Z,33
2018-05-02T16:50:35.701Z,33
2018-05-02T16:51:25.498Z,32.9
2018-05-02T16:52:15.855Z,32.9
2018-05-02T16:53:05.910Z,32.9
2018-05-02T16:53:55.955Z,32.8
2018-05-02T16:54:46.052Z,32.8
2018-05-02T16:55:35.538Z,32.7
2018-05-02T16:56:25.923Z,32.6
2018-05-02T16:57:16.235Z,32.6
2018-05-02T16:58:06.327Z,32.5
2018-05-02T16:58:56.346Z,32.4
2018-05-02T16:59:46.437Z,32.4
2018-05-02T17:00:36.490Z,32.3
2018-05-02T17:01:26.274Z,32.2
2018-05-02T17:02:16.352Z,32.2
2018-05-02T17:03:06.401Z,32.1
2018-05-02T17:03:56.736Z,32.1
2018-05-02T17:04:47.152Z,32.1
2018-05-02T17:05:36.873Z,32
2018-05-02T17:06:26.953Z,31.9
2018-05-02T17:07:16.437Z,31.9
2018-05-02T17:08:07.061Z,31.8
2018-05-02T17:08:56.945Z,31.8
2018-05-02T17:09:47.196Z,31.7
2018-05-02T17:10:37.259Z,31.6
2018-05-02T17:11:27.339Z,31.6
2018-05-02T17:12:17.385Z,31.5
2018-05-02T17:13:07.482Z,31.4
2018-05-02T17:13:57.546Z,31.4
2018-05-02T17:14:47.306Z,31.3
2018-05-02T17:15:37.680Z,31.3
2018-05-02T17:16:27.158Z,31.3
2018-05-02T17:17:17.794Z,31.1
2018-05-02T17:18:07.854Z,31.1
2018-05-02T17:18:57.909Z,31.1
2018-05-02T17:19:47.984Z,31
2018-05-02T17:20:38.031Z,30.9
2018-05-02T17:21:28.106Z,30.9
2018-05-02T17:22:18.976Z,30.8
2018-05-02T17:23:08.239Z,30.8
2018-05-02T17:23:58.014Z,30.7
2018-05-02T17:24:48.397Z,30.6
2018-05-02T17:25:38.152Z,30.6
2018-05-02T17:26:28.506Z,30.5
2018-05-02T17:27:18.560Z,30.4
2018-05-02T17:28:08.339Z,30.4
2018-05-02T17:28:58.127Z,30.3
2018-05-02T17:29:48.462Z,30.3
2018-05-02T17:30:38.817Z,30.2
2018-05-02T17:31:28.866Z,30.1
2018-05-02T17:32:18.659Z,30.1
2018-05-02T17:33:08.740Z,30
2018-05-02T17:33:58.797Z,29.9
2018-05-02T17:34:49.141Z,29.9
2018-05-02T17:35:38.649Z,29.8
2018-05-02T17:36:29.250Z,29.8
2018-05-02T17:37:19.397Z,29.7
2018-05-02T17:38:09.403Z,29.7
2018-05-02T17:38:59.454Z,29.6
2018-05-02T17:39:49.267Z,29.6
2018-05-02T17:40:39.642Z,29.5
2018-05-02T17:41:29.641Z,29.4
2018-05-02T17:42:19.740Z,29.4
2018-05-02T17:43:09.774Z,29.4
2018-05-02T17:43:59.291Z,29.3
2018-05-02T17:44:49.617Z,29.3
2018-05-02T17:45:39.989Z,29.2
2018-05-02T17:46:29.605Z,29.1
2018-05-02T17:47:19.541Z,29.1
2018-05-02T17:48:09.603Z,29
2018-05-02T17:49:00.252Z,29
2018-05-02T17:49:49.749Z,28.9
2018-05-02T17:50:40.360Z,28.9
2018-05-02T17:51:30.148Z,28.9
2018-05-02T17:52:20.515Z,28.8
2018-05-02T17:53:10.270Z,28.8
2018-05-02T17:54:00.344Z,28.7
2018-05-02T17:54:50.679Z,28.7
2018-05-02T17:55:40.252Z,28.6
2018-05-02T17:56:30.516Z,28.6
2018-05-02T17:57:20.875Z,28.6
2018-05-02T17:58:10.938Z,28.5
2018-05-02T17:59:00.726Z,28.4
2018-05-02T17:59:51.063Z,28.4
2018-05-02T18:00:41.129Z,28.4
2018-05-02T18:01:31.206Z,28.4
2018-05-02T18:02:20.975Z,28.3
2018-05-02T18:03:11.041Z,28.3
2018-05-02T18:04:01.392Z,28.2
2018-05-02T18:04:51.478Z,28.2
2018-05-02T18:05:41.594Z,28.1
2018-05-02T18:06:31.587Z,28.1
2018-05-02T18:07:21.070Z,28.1
2018-05-02T18:08:11.445Z,28.1
2018-05-02T18:09:01.774Z,28
2018-05-02T18:09:51.538Z,28
2018-05-02T18:10:41.948Z,27.9
2018-05-02T18:11:31.971Z,27.9
2018-05-02T18:12:21.466Z,27.9
2018-05-02T18:13:12.111Z,27.9
2018-05-02T18:15:41.728Z,27.8
2018-05-02T18:16:32.365Z,27.8
2018-05-02T18:17:22.420Z,27.7
2018-05-02T18:18:12.489Z,27.6
2018-05-02T18:19:02.550Z,27.6
2018-05-02T18:19:52.673Z,27.6
2018-05-02T18:20:42.391Z,27.6
2018-05-02T18:21:32.749Z,27.6
2018-05-02T18:22:22.543Z,27.5
2018-05-02T18:23:12.585Z,27.5
2018-05-02T18:24:02.920Z,27.4
2018-05-02T18:24:52.511Z,27.4
2018-05-02T18:25:42.561Z,27.4
2018-05-02T18:26:32.566Z,27.4
2018-05-02T18:27:22.922Z,27.4
2018-05-02T18:28:13.427Z,27.3
2018-05-02T18:29:03.381Z,27.3
2018-05-02T18:29:53.434Z,27.3
2018-05-02T18:30:43.179Z,27.3
2018-05-02T18:31:33.510Z,27.2
2018-05-02T18:32:23.568Z,27.2
2018-05-02T18:33:13.633Z,27.2
2018-05-02T18:34:03.710Z,27.1
2018-05-02T18:34:53.487Z,27.1
2018-05-02T18:35:43.270Z,27.1
2018-05-02T18:36:34.634Z,27
2018-05-02T18:37:23.970Z,27
2018-05-02T18:38:13.752Z,26.9
2018-05-02T18:39:04.099Z,26.9
2018-05-02T18:39:53.856Z,26.8
2018-05-02T18:40:43.932Z,26.7
2018-05-02T18:41:34.293Z,26.6
2018-05-02T18:42:24.346Z,26.6
2018-05-02T18:43:14.410Z,26.6
2018-05-02T18:44:03.910Z,26.6
2018-05-02T18:44:54.257Z,26.6
2018-05-02T18:45:44.617Z,26.7
2018-05-02T18:46:34.778Z,26.6
2018-05-02T18:47:24.160Z,26.6
2018-05-02T18:48:14.799Z,26.6
2018-05-02T18:49:04.590Z,26.5
2018-05-02T18:49:54.642Z,26.5
2018-05-02T18:50:44.727Z,26.5
2018-05-02T18:51:34.787Z,26.4
2018-05-02T18:52:24.859Z,26.4
2018-05-02T18:53:15.542Z,26.4
2018-05-02T18:54:04.971Z,26.4
2018-05-02T18:54:54.761Z,26.3
2018-05-02T18:55:45.087Z,26.3
2018-05-02T18:56:35.454Z,26.3
2018-05-02T18:57:25.241Z,26.3
2018-05-02T18:58:15.571Z,26.3
2018-05-02T18:59:05.653Z,26.3
2018-05-02T18:59:55.707Z,26.2
2018-05-02T19:00:45.769Z,26.2
2018-05-02T19:01:35.824Z,26.2
2018-05-02T19:02:25.613Z,26.1
2018-05-02T19:03:15.684Z,26.1
2018-05-02T19:04:06.027Z,26.1
2018-05-02T19:04:55.816Z,26.1
2018-05-02T19:05:46.171Z,26
2018-05-02T19:06:36.008Z,26
2018-05-02T19:07:26.033Z,26
2018-05-02T19:08:15.785Z,25.9
2018-05-02T19:09:05.864Z,25.9
2018-05-02T19:09:56.485Z,25.9
2018-05-02T19:10:46.546Z,25.9
2018-05-02T19:11:36.311Z,25.9
2018-05-02T19:12:26.655Z,25.9
2018-05-02T19:13:16.753Z,25.8
2018-05-02T19:14:06.241Z,25.8
2018-05-02T19:14:56.865Z,25.8
2018-05-02T19:15:46.654Z,25.8
2018-05-02T19:16:36.697Z,25.8
2018-05-02T19:17:27.067Z,25.7
2018-05-02T19:18:16.832Z,25.7
2018-05-02T19:19:07.175Z,25.7
2018-05-02T19:19:56.951Z,25.6
2018-05-02T19:20:47.328Z,25.7
2018-05-02T19:21:36.817Z,25.6
2018-05-02T19:22:27.436Z,25.6
2018-05-02T19:23:17.496Z,25.6
2018-05-02T19:24:07.385Z,25.6
2018-05-02T19:24:57.620Z,25.6
2018-05-02T19:25:47.707Z,25.5
2018-05-02T19:26:37.795Z,25.5
2018-05-02T19:27:27.849Z,25.5
2018-05-02T19:28:17.907Z,25.4
2018-05-02T19:29:07.392Z,25.4
2018-05-02T19:29:58.118Z,25.4
2018-05-02T19:30:47.808Z,25.4
2018-05-02T19:31:37.861Z,25.4
2018-05-02T19:32:27.725Z,25.4
2018-05-02T19:33:17.786Z,25.3
2018-05-02T19:34:07.851Z,25.3
2018-05-02T19:34:58.111Z,25.3
2018-05-02T19:35:48.203Z,25.3
2018-05-02T19:36:38.632Z,25.3
2018-05-02T19:37:28.325Z,25.2
2018-05-02T19:38:18.695Z,25.2
2018-05-02T19:39:07.881Z,25.2
2018-05-02T19:39:58.824Z,25.2
2018-05-02T19:40:48.598Z,25.1
2018-05-02T19:41:38.639Z,25.1
2018-05-02T19:42:28.710Z,25.1
2018-05-02T19:43:18.760Z,25.1
2018-05-02T19:44:09.138Z,25.1
2018-05-02T19:44:58.611Z,25.1
2018-05-02T19:45:49.242Z,25.1
2018-05-02T19:46:39.304Z,25
2018-05-02T19:47:28.534Z,25
2018-05-02T19:48:19.446Z,25
2018-05-02T19:49:09.513Z,24.9
2018-05-02T19:49:59.301Z,24.9
2018-05-02T19:50:49.359Z,24.9
2018-05-02T19:51:39.685Z,24.9
2018-05-02T19:52:29.479Z,24.9
2018-05-02T19:53:19.562Z,24.9
2018-05-02T19:54:09.614Z,24.9
2018-05-02T19:54:59.953Z,24.9
2018-05-02T19:55:50.113Z,24.9
2018-05-02T19:56:39.519Z,24.8
2018-05-02T19:57:30.162Z,24.8
2018-05-02T19:58:20.193Z,24.8
2018-05-02T19:59:09.978Z,24.8
2018-05-02T20:00:00.061Z,24.8
2018-05-02T20:00:50.426Z,24.7
2018-05-02T20:01:40.451Z,24.6
2018-05-02T20:02:30.524Z,24.6
2018-05-02T20:03:20.305Z,24.5
2018-05-02T20:04:10.662Z,24.4
2018-05-02T20:05:00.731Z,24.4
2018-05-02T20:05:50.792Z,24.3
2018-05-02T20:06:40.571Z,24.3
2018-05-02T20:07:30.906Z,24.3
2018-05-02T20:08:20.983Z,24.3
2018-05-02T20:09:11.072Z,24.2
2018-05-02T20:10:01.133Z,24.2
2018-05-02T20:10:51.284Z,24.1
2018-05-02T20:11:41.269Z,24.1
2018-05-02T20:12:31.031Z,24.1
2018-05-02T20:13:21.393Z,24.1
2018-05-02T20:14:11.437Z,24
2018-05-02T20:15:01.578Z,24
2018-05-02T20:15:51.582Z,23.9
2018-05-02T20:16:41.635Z,23.9
2018-05-02T20:17:31.700Z,23.9
2018-05-02T20:18:21.773Z,23.9
2018-05-02T20:19:11.847Z,23.8
2018-05-02T20:20:01.912Z,23.8
2018-05-02T20:20:51.949Z,23.8
2018-05-02T20:21:41.720Z,23.8
2018-05-02T20:22:32.072Z,23.7
2018-05-02T20:23:21.865Z,23.7
2018-05-02T20:24:12.218Z,23.7
2018-05-02T20:25:01.995Z,23.7
2018-05-02T20:25:51.768Z,23.6
2018-05-02T20:26:42.422Z,23.6
2018-05-02T20:27:32.212Z,23.6
2018-05-02T20:28:22.255Z,23.6
2018-05-02T20:29:12.608Z,23.6
2018-05-02T20:30:02.407Z,23.6
2018-05-02T20:30:52.659Z,23.5
2018-05-02T20:31:42.225Z,23.5
2018-05-02T20:32:32.562Z,23.5
2018-05-02T20:33:22.909Z,23.4
2018-05-02T20:34:12.697Z,23.4
2018-05-02T20:35:03.051Z,23.4
2018-05-02T20:35:52.282Z,23.4
2018-05-02T20:36:42.893Z,23.4
2018-05-02T20:37:33.255Z,23.4
2018-05-02T20:38:22.739Z,23.4
2018-05-02T20:39:13.434Z,23.4
2018-05-02T20:40:03.435Z,23.3
2018-05-02T20:40:53.478Z,23.3
2018-05-02T20:41:43.536Z,23.3
2018-05-02T20:42:33.697Z,23.3
2018-05-02T20:43:23.421Z,23.3
2018-05-02T20:44:13.810Z,23.3
2018-05-02T20:45:03.836Z,23.3
2018-05-02T20:45:53.608Z,23.3
2018-05-02T20:46:43.169Z,23.3
2018-05-02T20:47:33.721Z,23.3
2018-05-02T20:48:23.572Z,23.2
2018-05-02T20:49:13.357Z,23.2
2018-05-02T20:50:03.725Z,23.2
2018-05-02T20:50:53.501Z,23.2
2018-05-02T20:51:43.829Z,23.1
2018-05-02T20:52:34.099Z,23.1
2018-05-02T20:53:23.310Z,23.1
2018-05-02T20:54:14.556Z,23.1
2018-05-02T20:55:04.644Z,23.1
2018-05-02T20:55:54.368Z,23.1
2018-05-02T20:56:44.410Z,23.1
2018-05-02T20:57:34.871Z,23.1
2018-05-02T20:58:24.267Z,23
2018-05-02T20:59:14.910Z,23
2018-05-02T21:00:04.690Z,23
2018-05-02T21:00:55.028Z,22.9
2018-05-02T21:01:44.826Z,22.9
2018-05-02T21:02:35.157Z,22.9
2018-05-02T21:03:24.943Z,22.9
2018-05-02T21:04:15.022Z,22.8
2018-05-02T21:05:05.349Z,22.8
2018-05-02T21:05:55.429Z,22.8